createdAt,value
2022-08-30T00:02:09.511Z,8.45
2022-08-30T00:05:15.971Z,9.03
2022-08-30T00:08:15.225Z,9.23
2022-08-30T00:11:23.742Z,9.30
2022-08-30T00:14:30.245Z,9.83
2022-08-30T00:17:35.410Z,8.48
2022-08-30T00:20:43.569Z,8.75
2022-08-30T00:23:48.774Z,9.63
2022-08-30T00:26:53.867Z,8.65
2022-08-30T00:29:59.613Z,9.35
2022-08-30T00:32:58.097Z,9.20
2022-08-30T00:36:04.280Z,11.37
2022-08-30T00:39:10.346Z,9.75
2022-08-30T00:42:16.004Z,9.98
2022-08-30T00:45:38.470Z,9.90
2022-08-30T00:48:45.754Z,9.30
2022-08-30T00:51:51.253Z,8.50
2022-08-30T00:54:57.951Z,9.38
2022-08-30T00:58:04.284Z,8.65
2022-08-30T01:01:12.658Z,9.78
2022-08-30T01:04:22.187Z,10.00
2022-08-30T01:07:27.351Z,9.63
2022-08-30T01:10:34.184Z,9.78
2022-08-30T01:13:40.007Z,8.88
2022-08-30T01:16:46.535Z,10.35
2022-08-30T01:20:13.598Z,9.40
2022-08-30T01:23:28.143Z,9.75
2022-08-30T01:26:33.734Z,9.70
2022-08-30T01:29:33.123Z,10.60
2022-08-30T01:32:29.571Z,9.98
2022-08-30T01:35:24.967Z,9.33
2022-08-30T01:38:10.549Z,9.90
2022-08-30T01:41:19.787Z,10.50
2022-08-30T01:44:15.465Z,10.48
2022-08-30T01:47:13.915Z,10.55
2022-08-30T01:50:21.218Z,10.55
2022-08-30T01:53:21.393Z,10.90
2022-08-30T01:56:14.442Z,9.50
2022-08-30T01:59:21.085Z,10.60
2022-08-30T02:02:27.050Z,10.30
2022-08-30T02:05:33.597Z,10.90
2022-08-30T02:08:39.015Z,9.73
2022-08-30T02:11:44.495Z,10.10
2022-08-30T02:14:50.824Z,10.18
2022-08-30T02:17:56.698Z,11.63
2022-08-30T02:21:02.612Z,11.43
2022-08-30T02:24:08.612Z,10.38
2022-08-30T02:27:15.286Z,10.55
2022-08-30T02:30:22.715Z,10.95
2022-08-30T02:33:28.743Z,10.50
2022-08-30T02:36:35.492Z,10.25
2022-08-30T02:39:41.876Z,11.33
2022-08-30T02:42:48.411Z,11.38
2022-08-30T02:45:53.760Z,10.82
2022-08-30T02:49:13.040Z,11.22
2022-08-30T02:52:09.083Z,10.48
2022-08-30T02:55:07.566Z,9.85
2022-08-30T02:57:59.952Z,10.85
2022-08-30T03:01:05.795Z,11.47
2022-08-30T03:04:12.182Z,9.93
2022-08-30T03:07:18.915Z,10.82
2022-08-30T03:10:24.354Z,9.38
2022-08-30T03:13:30.261Z,9.88
2022-08-30T03:16:36.817Z,9.25
2022-08-30T03:19:43.149Z,9.25
2022-08-30T03:22:48.682Z,8.95
2022-08-30T03:25:54.229Z,11.05
2022-08-30T03:29:00.833Z,9.90
2022-08-30T03:32:07.162Z,10.50
2022-08-30T03:35:13.640Z,10.93
2022-08-30T03:38:20.391Z,10.38
2022-08-30T03:41:26.700Z,10.13
2022-08-30T03:44:32.227Z,10.75
2022-08-30T03:47:37.606Z,9.90
2022-08-30T03:50:44.929Z,9.80
2022-08-30T03:53:50.555Z,10.48
2022-08-30T03:56:57.444Z,9.80
2022-08-30T04:00:04.310Z,9.23
2022-08-30T04:03:13.752Z,9.25
2022-08-30T04:06:20.155Z,9.73
2022-08-30T04:09:26.759Z,10.05
2022-08-30T04:12:32.321Z,8.98
2022-08-30T04:15:38.720Z,10.05
2022-08-30T04:18:44.584Z,10.50
2022-08-30T04:21:49.888Z,9.78
2022-08-30T04:24:55.371Z,10.18
2022-08-30T04:28:02.847Z,10.08
2022-08-30T04:31:11.812Z,9.78
2022-08-30T04:34:18.823Z,10.08
2022-08-30T04:37:24.346Z,9.10
2022-08-30T04:40:31.184Z,10.18
2022-08-30T04:43:36.806Z,8.48
2022-08-30T04:46:37.286Z,10.38
2022-08-30T04:49:24.607Z,10.55
2022-08-30T04:52:17.899Z,17.23
2022-08-30T04:55:11.875Z,17.00
2022-08-30T04:58:17.501Z,18.70
2022-08-30T05:01:29.303Z,16.17
2022-08-30T05:04:35.484Z,15.35
2022-08-30T05:07:41.339Z,16.37
2022-08-30T05:10:47.959Z,18.92
2022-08-30T05:13:53.533Z,19.60
2022-08-30T05:16:58.802Z,22.00
2022-08-30T05:20:04.314Z,27.70
2022-08-30T05:23:10.540Z,36.55
2022-08-30T05:26:27.071Z,60.50
2022-08-30T05:29:26.718Z,107.15
2022-08-30T05:32:35.439Z,133.93
2022-08-30T05:35:43.316Z,168.50
2022-08-30T05:38:49.366Z,110.78
2022-08-30T05:41:56.006Z,139.45
2022-08-30T05:45:03.590Z,115.88
2022-08-30T05:48:09.212Z,90.92
2022-08-30T05:51:25.238Z,72.12
2022-08-30T05:54:30.651Z,70.72
2022-08-30T05:57:36.895Z,63.23
2022-08-30T06:00:44.687Z,62.35
2022-08-30T06:03:50.234Z,60.80
2022-08-30T06:06:58.532Z,57.62
2022-08-30T06:10:04.498Z,52.10
2022-08-30T06:13:13.764Z,50.90
2022-08-30T06:16:21.867Z,49.70
2022-08-30T06:19:27.435Z,49.85
2022-08-30T06:22:32.417Z,30.17
2022-08-30T06:25:41.888Z,17.37
2022-08-30T06:28:45.363Z,15.80
2022-08-30T06:31:52.130Z,16.40
2022-08-30T06:34:57.952Z,15.85
2022-08-30T06:38:04.111Z,16.90
2022-08-30T06:41:10.328Z,15.70
2022-08-30T06:44:16.668Z,15.15
2022-08-30T06:47:21.759Z,13.70
2022-08-30T06:50:20.714Z,15.13
2022-08-30T06:53:19.530Z,15.63
2022-08-30T06:56:27.798Z,16.93
2022-08-30T06:59:33.500Z,16.15
2022-08-30T07:02:39.047Z,18.55
2022-08-30T07:09:33.675Z,12.33
2022-08-30T07:12:40.564Z,9.88
2022-08-30T07:15:47.010Z,9.08
2022-08-30T07:18:58.293Z,10.70
2022-08-30T07:21:57.487Z,8.53
2022-08-30T07:24:50.023Z,6.53
2022-08-30T07:27:58.817Z,7.58
2022-08-30T07:31:04.384Z,7.83
2022-08-30T07:34:02.964Z,7.90
2022-08-30T07:37:08.088Z,6.90
2022-08-30T07:40:13.651Z,7.05
2022-08-30T07:43:19.414Z,7.37
2022-08-30T07:46:24.879Z,7.17
2022-08-30T07:49:29.971Z,6.95
2022-08-30T07:52:35.595Z,6.28
2022-08-30T07:55:41.270Z,5.80
2022-08-30T07:58:39.741Z,6.72
2022-08-30T08:01:33.476Z,4.97
2022-08-30T08:04:38.432Z,5.75
2022-08-30T08:07:43.965Z,6.40
2022-08-30T08:10:51.075Z,5.30
2022-08-30T08:14:00.321Z,5.22
2022-08-30T08:17:05.878Z,4.47
2022-08-30T08:20:13.083Z,4.83
2022-08-30T08:23:18.858Z,5.05
2022-08-30T08:26:25.053Z,5.72
2022-08-30T08:29:30.658Z,5.60
2022-08-30T08:32:36.015Z,5.12
2022-08-30T08:35:41.351Z,4.72
2022-08-30T08:38:46.575Z,4.58
2022-08-30T08:42:06.217Z,4.78
2022-08-30T08:45:21.428Z,4.25
2022-08-30T08:49:00.575Z,5.35
2022-08-30T08:52:21.125Z,4.05
2022-08-30T08:55:28.752Z,5.22
2022-08-30T08:58:42.111Z,5.33
2022-08-30T09:01:48.521Z,4.87
2022-08-30T09:04:54.546Z,4.75
2022-08-30T09:08:05.506Z,4.58
2022-08-30T09:11:22.176Z,4.65
2022-08-30T09:14:32.981Z,4.67
2022-08-30T09:17:39.912Z,4.85
2022-08-30T09:20:50.228Z,4.45
2022-08-30T09:24:06.001Z,4.97
2022-08-30T09:27:10.791Z,4.37
2022-08-30T09:30:27.178Z,4.83
2022-08-30T09:33:35.590Z,4.72
2022-08-30T09:36:44.011Z,5.80
2022-08-30T09:39:52.531Z,4.70
2022-08-30T09:43:06.813Z,5.03
2022-08-30T09:46:16.258Z,4.37
2022-08-30T09:49:25.612Z,4.42
2022-08-30T09:52:55.408Z,4.65
2022-08-30T09:56:10.798Z,4.65
2022-08-30T09:59:30.793Z,5.70
2022-08-30T10:03:06.660Z,4.50
2022-08-30T10:06:27.977Z,5.47
2022-08-30T10:09:41.221Z,4.80
2022-08-30T10:13:09.397Z,5.30
2022-08-30T10:16:45.312Z,5.00
2022-08-30T10:20:09.312Z,4.60
2022-08-30T10:23:27.949Z,4.60
2022-08-30T10:26:44.355Z,5.05
2022-08-30T10:30:06.495Z,5.03
2022-08-30T10:33:34.697Z,4.70
2022-08-30T10:36:46.715Z,3.85
2022-08-30T10:40:11.071Z,4.50
2022-08-30T10:43:22.590Z,3.85
2022-08-30T10:46:47.343Z,3.98
2022-08-30T10:50:00.611Z,4.87
2022-08-30T10:53:12.531Z,4.83
2022-08-30T10:56:26.569Z,4.90
2022-08-30T10:59:32.999Z,4.80
2022-08-30T11:02:51.771Z,4.40
2022-08-30T11:06:23.908Z,4.35
2022-08-30T11:09:39.799Z,4.40
2022-08-30T11:12:58.326Z,4.67
2022-08-30T11:16:27.280Z,4.15
2022-08-30T11:19:41.846Z,4.58
2022-08-30T11:22:51.445Z,4.10
2022-08-30T11:26:20.756Z,4.40
2022-08-30T11:29:20.492Z,4.65
2022-08-30T11:32:38.652Z,4.87
2022-08-30T11:36:01.267Z,5.08
2022-08-30T11:39:11.653Z,4.37
2022-08-30T11:46:11.390Z,4.40
2022-08-30T11:49:36.342Z,3.72
2022-08-30T11:53:20.813Z,4.22
2022-08-30T11:56:37.179Z,4.25
2022-08-30T12:00:15.878Z,4.22
2022-08-30T12:07:15.050Z,4.42
2022-08-30T12:10:20.517Z,4.67
2022-08-30T12:13:44.997Z,4.03
2022-08-30T12:17:17.820Z,4.30
2022-08-30T12:20:37.494Z,4.65
2022-08-30T12:24:08.124Z,4.70
2022-08-30T12:27:10.350Z,4.62
2022-08-30T12:30:20.896Z,4.20
2022-08-30T12:33:29.323Z,4.80
2022-08-30T12:36:51.134Z,4.65
2022-08-30T12:39:58.537Z,4.72
2022-08-30T12:43:14.557Z,5.35
2022-08-30T12:46:24.296Z,5.10
2022-08-30T12:49:32.588Z,4.40
2022-08-30T12:52:57.089Z,4.22
2022-08-30T12:56:21.249Z,4.50
2022-08-30T12:59:23.182Z,4.22
2022-08-30T13:02:34.152Z,5.05
2022-08-30T13:05:52.807Z,4.45
2022-08-30T13:09:03.594Z,4.20
2022-08-30T13:12:09.204Z,4.55
2022-08-30T13:15:32.834Z,4.33
2022-08-30T13:18:43.527Z,4.03
2022-08-30T13:21:50.257Z,4.45
2022-08-30T13:24:55.388Z,4.15
2022-08-30T13:28:01.552Z,4.50
2022-08-30T13:31:06.641Z,4.20
2022-08-30T13:34:12.197Z,4.10
2022-08-30T13:40:26.726Z,4.58
2022-08-30T13:44:08.892Z,4.33
2022-08-30T13:46:38.748Z,4.80
2022-08-30T13:49:49.907Z,5.35
2022-08-30T13:52:56.603Z,4.05
2022-08-30T13:56:02.170Z,4.53
2022-08-30T13:59:08.149Z,4.60
2022-08-30T14:02:13.329Z,4.50
2022-08-30T14:08:45.250Z,4.67
2022-08-30T14:11:35.550Z,4.22
2022-08-30T14:14:42.996Z,4.65
2022-08-30T14:17:47.142Z,4.08
2022-08-30T14:20:52.461Z,4.95
2022-08-30T14:23:58.407Z,3.85
2022-08-30T14:27:05.259Z,4.67
2022-08-30T14:30:11.945Z,5.20
2022-08-30T14:33:17.523Z,4.60
2022-08-30T14:36:23.222Z,5.15
2022-08-30T14:39:26.833Z,4.87
2022-08-30T14:42:26.516Z,5.00
2022-08-30T14:45:31.858Z,5.00
2022-08-30T14:48:37.357Z,4.58
2022-08-30T14:51:44.844Z,5.50
2022-08-30T14:54:54.247Z,5.60
2022-08-30T14:57:57.666Z,4.42
2022-08-30T15:01:07.252Z,9.03
2022-08-30T15:04:12.950Z,4.78
2022-08-30T15:07:18.307Z,4.62
2022-08-30T15:10:26.903Z,4.22
2022-08-30T15:13:32.544Z,5.47
2022-08-30T15:16:42.171Z,6.17
2022-08-30T15:19:47.425Z,5.37
2022-08-30T15:22:54.986Z,5.03
2022-08-30T15:26:01.436Z,5.55
2022-08-30T15:29:08.045Z,5.37
2022-08-30T15:32:13.406Z,4.70
2022-08-30T15:35:13.537Z,7.53
2022-08-30T15:38:19.643Z,6.58
2022-08-30T15:41:27.483Z,5.90
2022-08-30T15:44:34.443Z,6.45
2022-08-30T15:47:40.662Z,5.62
2022-08-30T15:50:46.276Z,5.45
2022-08-30T15:53:51.773Z,5.58
2022-08-30T15:57:00.231Z,7.05
2022-08-30T16:00:08.003Z,5.67
2022-08-30T16:03:14.686Z,5.08
2022-08-30T16:06:19.495Z,5.25
2022-08-30T16:09:25.817Z,6.00
2022-08-30T16:12:32.766Z,5.33
2022-08-30T16:15:37.905Z,6.12
2022-08-30T16:18:43.654Z,6.10
2022-08-30T16:21:51.301Z,5.20
2022-08-30T16:24:56.929Z,5.33
2022-08-30T16:28:02.047Z,7.12
2022-08-30T16:31:07.082Z,5.72
2022-08-30T16:34:14.088Z,5.55
2022-08-30T16:37:13.756Z,5.25
2022-08-30T16:43:24.659Z,5.47
2022-08-30T16:46:31.174Z,6.35
2022-08-30T16:49:38.114Z,5.50
2022-08-30T16:52:44.439Z,5.80
2022-08-30T16:55:51.671Z,5.50
2022-08-30T16:59:02.197Z,5.95
2022-08-30T17:02:05.606Z,5.00
2022-08-30T17:05:12.244Z,5.05
2022-08-30T17:08:13.964Z,6.75
2022-08-30T17:10:59.615Z,5.25
2022-08-30T17:13:52.504Z,5.87
2022-08-30T17:16:45.272Z,5.53
2022-08-30T17:22:56.700Z,5.53
2022-08-30T17:26:04.364Z,6.33
2022-08-30T17:29:10.867Z,6.28
2022-08-30T17:32:17.444Z,6.58
2022-08-30T17:35:23.707Z,10.48
2022-08-30T17:38:30.434Z,9.85
2022-08-30T17:41:36.760Z,10.70
2022-08-30T17:44:43.046Z,10.35
2022-08-30T17:47:48.792Z,9.43
2022-08-30T17:50:56.067Z,10.53
2022-08-30T17:54:02.715Z,9.83
2022-08-30T17:57:10.959Z,8.78
2022-08-30T18:00:17.867Z,8.83
2022-08-30T18:03:23.722Z,12.30
2022-08-30T18:06:29.431Z,11.35
2022-08-30T18:09:35.343Z,9.20
2022-08-30T18:12:42.518Z,8.38
2022-08-30T18:15:48.064Z,7.50
2022-08-30T18:18:57.177Z,8.85
2022-08-30T18:22:03.419Z,9.15
2022-08-30T18:25:09.812Z,8.70
2022-08-30T18:28:16.292Z,8.10
2022-08-30T18:31:24.567Z,7.70
2022-08-30T18:34:30.243Z,6.50
2022-08-30T18:37:35.664Z,7.03
2022-08-30T18:40:42.401Z,6.47
2022-08-30T18:43:48.875Z,6.65
2022-08-30T18:46:56.797Z,6.42
2022-08-30T18:49:55.351Z,6.15
2022-08-30T18:53:01.050Z,6.03
2022-08-30T18:56:07.960Z,6.55
2022-08-30T18:59:13.741Z,6.37
2022-08-30T19:02:22.019Z,7.12
2022-08-30T19:05:30.700Z,8.08
2022-08-30T19:08:38.082Z,9.75
2022-08-30T19:11:38.348Z,8.98
2022-08-30T19:14:44.826Z,7.08
2022-08-30T19:17:50.041Z,5.90
2022-08-30T19:20:57.423Z,5.80
2022-08-30T19:24:03.601Z,6.25
2022-08-30T19:27:10.378Z,6.25
2022-08-30T19:30:20.112Z,5.85
2022-08-30T19:33:23.772Z,6.03
2022-08-30T19:36:29.311Z,6.55
2022-08-30T19:39:34.354Z,6.15
2022-08-30T19:42:45.765Z,6.67
2022-08-30T19:45:46.289Z,10.65
2022-08-30T19:48:53.434Z,8.08
2022-08-30T19:51:59.023Z,7.92
2022-08-30T19:55:04.636Z,8.65
2022-08-30T19:58:11.509Z,8.05
2022-08-30T20:01:33.654Z,7.20
2022-08-30T20:04:25.177Z,6.15
2022-08-30T20:07:27.495Z,6.83
2022-08-30T20:10:31.711Z,6.08
2022-08-30T20:13:37.405Z,6.58
2022-08-30T20:16:43.875Z,6.67
2022-08-30T20:19:52.710Z,6.40
2022-08-30T20:22:58.326Z,6.33
2022-08-30T20:26:03.941Z,5.90
2022-08-30T20:29:09.545Z,6.60
2022-08-30T20:32:15.408Z,5.87
2022-08-30T20:35:22.951Z,5.80
2022-08-30T20:38:28.747Z,5.87
2022-08-30T20:41:36.291Z,6.70
2022-08-30T20:44:41.620Z,7.17
2022-08-30T20:47:48.286Z,6.75
2022-08-30T20:50:54.207Z,6.25
2022-08-30T20:54:01.778Z,6.83
2022-08-30T20:57:08.124Z,6.65
2022-08-30T21:00:16.081Z,7.83
2022-08-30T21:03:27.262Z,6.55
2022-08-30T21:06:30.404Z,6.28
2022-08-30T21:09:37.137Z,7.10
2022-08-30T21:12:44.879Z,6.28
2022-08-30T21:15:53.276Z,5.85
2022-08-30T21:19:00.583Z,6.22
2022-08-30T21:22:07.014Z,6.83
2022-08-30T21:25:11.739Z,7.15
2022-08-30T21:28:18.582Z,6.03
2022-08-30T21:31:27.115Z,6.87
2022-08-30T21:34:32.611Z,6.25
2022-08-30T21:37:38.164Z,6.85
2022-08-30T21:40:38.177Z,6.72
2022-08-30T21:46:42.207Z,7.92
2022-08-30T21:49:47.782Z,8.15
2022-08-30T21:52:54.118Z,9.78
2022-08-30T21:56:01.608Z,9.53
2022-08-30T21:59:07.581Z,9.15
2022-08-30T22:02:12.217Z,9.30
2022-08-30T22:05:18.308Z,10.38
2022-08-30T22:08:24.697Z,9.23
2022-08-30T22:11:32.970Z,8.68
2022-08-30T22:14:38.118Z,9.00
2022-08-30T22:17:44.810Z,8.58
2022-08-30T22:20:50.705Z,9.23
2022-08-30T22:23:56.518Z,9.13
2022-08-30T22:27:02.113Z,9.30
2022-08-30T22:30:07.619Z,8.63
2022-08-30T22:33:12.866Z,8.03
2022-08-30T22:36:32.537Z,8.38
2022-08-30T22:39:36.523Z,9.35
2022-08-30T22:42:35.788Z,9.50
2022-08-30T22:45:43.079Z,9.13
2022-08-30T22:48:51.283Z,9.15
2022-08-30T22:51:56.435Z,8.40
2022-08-30T22:55:01.232Z,10.25
2022-08-30T22:58:07.778Z,9.25
2022-08-30T23:01:14.407Z,8.75
2022-08-30T23:04:21.213Z,9.00
2022-08-30T23:07:27.754Z,8.50
2022-08-30T23:10:35.347Z,9.18
2022-08-30T23:13:41.261Z,9.33
2022-08-30T23:16:46.624Z,8.25
2022-08-30T23:19:51.739Z,8.48
2022-08-30T23:23:07.500Z,9.08
2022-08-30T23:26:32.746Z,8.10
2022-08-30T23:29:56.246Z,8.08
2022-08-30T23:33:20.024Z,7.35
2022-08-30T23:36:45.367Z,8.63
2022-08-30T23:40:07.981Z,8.35
2022-08-30T23:43:30.725Z,8.25
2022-08-30T23:46:54.680Z,9.00
2022-08-30T23:50:18.812Z,9.18
2022-08-30T23:53:43.683Z,9.05
2022-08-30T23:57:07.595Z,8.25
